Værinformasjon

ENOV 271850Z 16003KT 9999 FEW070 SCT095 BKN170 20/16 Q1008 RMK WIND 2175FT 11003KT


ENSD 271950Z 33007KT 300V020 9999 FEW060 BKN100 21/16 Q1007 RMK WIND 1138FT 31007KT


ENAL 272220Z AUTO 06007KT 9999 FEW080/// BKN160/// 17/14 Q1007


ENML 272220Z AUTO 08003KT 040V180 9999NDV BKN098/// BKN170/// 20/15 Q1007